sensor_id;sensor_type;location;lat;lon;timestamp;pressure;altitude;pressure_sealevel;temperature;humidity
10606;BME280;5350;42.698;23.148;2023-01-23T00:02:09;94034.72;;;5.03;100.00
10606;BME280;5350;42.698;23.148;2023-01-23T00:04:36;94034.50;;;5.09;100.00
10606;BME280;5350;42.698;23.148;2023-01-23T00:07:03;94041.41;;;5.20;100.00
10606;BME280;5350;42.698;23.148;2023-01-23T00:09:30;94050.38;;;5.29;100.00
10606;BME280;5350;42.698;23.148;2023-01-23T00:11:56;94040.38;;;5.21;100.00
10606;BME280;5350;42.698;23.148;2023-01-23T00:14:24;94044.91;;;5.09;100.00
10606;BME280;5350;42.698;23.148;2023-01-23T00:16:51;94043.72;;;5.17;100.00
10606;BME280;5350;42.698;23.148;2023-01-23T00:19:18;94048.00;;;5.28;100.00
10606;BME280;5350;42.698;23.148;2023-01-23T00:21:45;94046.22;;;5.33;100.00
10606;BME280;5350;42.698;23.148;2023-01-23T00:24:12;94045.72;;;5.36;100.00
10606;BME280;5350;42.698;23.148;2023-01-23T00:26:39;94042.63;;;5.39;100.00
10606;BME280;5350;42.698;23.148;2023-01-23T00:29:06;94040.28;;;5.38;100.00
10606;BME280;5350;42.698;23.148;2023-01-23T00:31:36;94040.63;;;5.46;100.00
10606;BME280;5350;42.698;23.148;2023-01-23T00:34:05;94046.69;;;5.57;100.00
10606;BME280;5350;42.698;23.148;2023-01-23T00:36:34;94042.34;;;5.67;100.00
10606;BME280;5350;42.698;23.148;2023-01-23T00:39:01;94042.94;;;5.75;100.00
10606;BME280;5350;42.698;23.148;2023-01-23T00:41:28;94035.38;;;5.73;100.00
10606;BME280;5350;42.698;23.148;2023-01-23T00:43:54;94056.69;;;5.92;100.00
10606;BME280;5350;42.698;23.148;2023-01-23T00:46:22;94060.78;;;5.83;100.00
10606;BME280;5350;42.698;23.148;2023-01-23T00:48:50;94055.53;;;5.83;100.00
10606;BME280;5350;42.698;23.148;2023-01-23T00:51:17;94061.88;;;5.87;100.00
10606;BME280;5350;42.698;23.148;2023-01-23T00:53:43;94057.72;;;5.91;100.00
10606;BME280;5350;42.698;23.148;2023-01-23T00:56:10;94057.72;;;5.91;100.00
10606;BME280;5350;42.698;23.148;2023-01-23T00:58:37;94041.94;;;5.49;100.00
10606;BME280;5350;42.698;23.148;2023-01-23T01:01:05;94048.13;;;5.38;100.00
10606;BME280;5350;42.698;23.148;2023-01-23T01:03:32;94040.00;;;5.66;100.00
10606;BME280;5350;42.698;23.148;2023-01-23T01:06:00;94047.59;;;5.67;100.00
10606;BME280;5350;42.698;23.148;2023-01-23T01:08:27;94034.09;;;5.76;100.00
10606;BME280;5350;42.698;23.148;2023-01-23T01:10:54;94042.91;;;5.69;100.00
10606;BME280;5350;42.698;23.148;2023-01-23T01:13:20;94047.28;;;5.59;100.00
10606;BME280;5350;42.698;23.148;2023-01-23T01:15:48;94050.16;;;5.62;100.00
10606;BME280;5350;42.698;23.148;2023-01-23T01:18:16;94055.47;;;5.73;100.00
10606;BME280;5350;42.698;23.148;2023-01-23T01:20:43;94052.91;;;5.78;100.00
10606;BME280;5350;42.698;23.148;2023-01-23T01:23:12;94062.38;;;5.84;100.00
10606;BME280;5350;42.698;23.148;2023-01-23T01:25:39;94068.06;;;5.81;100.00
10606;BME280;5350;42.698;23.148;2023-01-23T01:28:06;94066.88;;;5.93;100.00
10606;BME280;5350;42.698;23.148;2023-01-23T01:30:33;94056.06;;;5.80;100.00
10606;BME280;5350;42.698;23.148;2023-01-23T01:33:01;94062.22;;;5.95;100.00
10606;BME280;5350;42.698;23.148;2023-01-23T01:35:27;94063.19;;;6.21;100.00
10606;BME280;5350;42.698;23.148;2023-01-23T01:37:54;94062.13;;;6.22;100.00
10606;BME280;5350;42.698;23.148;2023-01-23T01:40:24;94072.41;;;6.33;100.00
10606;BME280;5350;42.698;23.148;2023-01-23T01:42:55;94063.28;;;6.36;100.00
10606;BME280;5350;42.698;23.148;2023-01-23T01:45:59;94068.75;;;6.34;100.00
10606;BME280;5350;42.698;23.148;2023-01-23T01:48:33;94063.41;;;6.14;100.00
10606;BME280;5350;42.698;23.148;2023-01-23T01:51:04;94070.41;;;6.09;100.00
10606;BME280;5350;42.698;23.148;2023-01-23T01:53:32;94069.91;;;6.12;100.00
10606;BME280;5350;42.698;23.148;2023-01-23T01:56:02;94079.66;;;6.21;100.00
10606;BME280;5350;42.698;23.148;2023-01-23T01:58:29;94071.78;;;6.16;100.00
10606;BME280;5350;42.698;23.148;2023-01-23T02:00:56;94079.34;;;6.18;100.00
10606;BME280;5350;42.698;23.148;2023-01-23T02:03:23;94067.81;;;6.14;100.00
10606;BME280;5350;42.698;23.148;2023-01-23T02:05:51;94073.34;;;6.17;100.00
10606;BME280;5350;42.698;23.148;2023-01-23T02:08:20;94084.28;;;6.14;100.00
10606;BME280;5350;42.698;23.148;2023-01-23T02:10:48;94088.03;;;6.28;100.00
10606;BME280;5350;42.698;23.148;2023-01-23T02:13:27;94090.97;;;6.00;100.00
10606;BME280;5350;42.698;23.148;2023-01-23T02:15:57;94079.78;;;6.05;100.00
10606;BME280;5350;42.698;23.148;2023-01-23T02:18:26;94076.72;;;6.13;100.00
10606;BME280;5350;42.698;23.148;2023-01-23T02:20:55;94069.66;;;6.13;100.00
10606;BME280;5350;42.698;23.148;2023-01-23T02:23:29;94070.97;;;6.16;100.00
10606;BME280;5350;42.698;23.148;2023-01-23T02:26:04;94073.63;;;6.21;100.00
10606;BME280;5350;42.698;23.148;2023-01-23T02:28:37;94076.25;;;6.26;100.00
10606;BME280;5350;42.698;23.148;2023-01-23T02:31:05;94073.13;;;6.24;100.00
10606;BME280;5350;42.698;23.148;2023-01-23T02:33:46;94070.06;;;6.32;100.00
10606;BME280;5350;42.698;23.148;2023-01-23T02:36:13;94059.38;;;6.38;100.00
10606;BME280;5350;42.698;23.148;2023-01-23T02:38:47;94080.63;;;6.52;100.00
10606;BME280;5350;42.698;23.148;2023-01-23T02:41:23;94071.81;;;6.63;100.00
10606;BME280;5350;42.698;23.148;2023-01-23T02:43:52;94067.34;;;6.64;100.00
10606;BME280;5350;42.698;23.148;2023-01-23T02:46:20;94078.38;;;6.71;100.00
10606;BME280;5350;42.698;23.148;2023-01-23T02:48:47;94074.47;;;6.73;100.00
10606;BME280;5350;42.698;23.148;2023-01-23T02:51:14;94066.16;;;6.81;100.00
10606;BME280;5350;42.698;23.148;2023-01-23T02:53:42;94067.72;;;6.82;100.00
10606;BME280;5350;42.698;23.148;2023-01-23T02:56:09;94077.72;;;6.90;100.00
10606;BME280;5350;42.698;23.148;2023-01-23T02:58:37;94067.25;;;6.90;100.00
10606;BME280;5350;42.698;23.148;2023-01-23T03:01:23;94081.13;;;6.96;100.00
10606;BME280;5350;42.698;23.148;2023-01-23T03:03:52;94068.31;;;6.99;100.00
10606;BME280;5350;42.698;23.148;2023-01-23T03:06:21;94073.81;;;6.98;100.00
10606;BME280;5350;42.698;23.148;2023-01-23T03:08:47;94071.22;;;7.03;100.00
10606;BME280;5350;42.698;23.148;2023-01-23T03:11:15;94071.47;;;6.96;100.00
10606;BME280;5350;42.698;23.148;2023-01-23T03:13:44;94063.38;;;7.03;100.00
10606;BME280;5350;42.698;23.148;2023-01-23T03:16:11;94064.41;;;7.02;100.00
10606;BME280;5350;42.698;23.148;2023-01-23T03:18:38;94075.94;;;7.06;100.00
10606;BME280;5350;42.698;23.148;2023-01-23T03:21:06;94058.91;;;6.98;100.00
10606;BME280;5350;42.698;23.148;2023-01-23T03:23:32;94062.06;;;7.05;100.00
10606;BME280;5350;42.698;23.148;2023-01-23T03:26:00;94058.63;;;6.95;100.00
10606;BME280;5350;42.698;23.148;2023-01-23T03:28:27;94061.22;;;6.90;100.00
10606;BME280;5350;42.698;23.148;2023-01-23T03:31:13;94060.69;;;6.93;100.00
10606;BME280;5350;42.698;23.148;2023-01-23T03:33:40;94064.09;;;6.93;100.00
10606;BME280;5350;42.698;23.148;2023-01-23T03:36:08;94058.63;;;6.95;100.00
10606;BME280;5350;42.698;23.148;2023-01-23T03:38:36;94051.81;;;6.94;100.00
10606;BME280;5350;42.698;23.148;2023-01-23T03:41:03;94062.03;;;6.95;100.00
10606;BME280;5350;42.698;23.148;2023-01-23T03:43:47;94068.81;;;6.91;100.00
10606;BME280;5350;42.698;23.148;2023-01-23T03:46:15;94056.53;;;6.92;100.00
10606;BME280;5350;42.698;23.148;2023-01-23T03:48:41;94060.44;;;6.89;100.00
10606;BME280;5350;42.698;23.148;2023-01-23T03:51:08;94056.00;;;6.90;100.00
10606;BME280;5350;42.698;23.148;2023-01-23T03:53:35;94057.84;;;6.94;100.00
10606;BME280;5350;42.698;23.148;2023-01-23T03:56:02;94049.22;;;6.94;100.00
10606;BME280;5350;42.698;23.148;2023-01-23T03:58:29;94057.84;;;6.94;100.00
10606;BME280;5350;42.698;23.148;2023-01-23T04:00:55;94054.19;;;6.95;100.00
10606;BME280;5350;42.698;23.148;2023-01-23T04:03:24;94062.81;;;6.96;100.00
10606;BME280;5350;42.698;23.148;2023-01-23T04:05:54;94057.81;;;6.89;100.00
10606;BME280;5350;42.698;23.148;2023-01-23T04:08:21;94060.16;;;6.86;100.00
10606;BME280;5350;42.698;23.148;2023-01-23T04:10:48;94069.34;;;6.88;100.00
10606;BME280;5350;42.698;23.148;2023-01-23T04:13:15;94057.56;;;6.91;100.00
10606;BME280;5350;42.698;23.148;2023-01-23T04:15:42;94068.31;;;6.94;100.00
10606;BME280;5350;42.698;23.148;2023-01-23T04:18:09;94061.50;;;6.93;100.00
10606;BME280;5350;42.698;23.148;2023-01-23T04:20:37;94062.06;;;7.00;100.00
10606;BME280;5350;42.698;23.148;2023-01-23T04:23:04;94070.94;;;6.94;100.00
10606;BME280;5350;42.698;23.148;2023-01-23T04:25:30;94083.50;;;7.02;100.00
10606;BME280;5350;42.698;23.148;2023-01-23T04:27:57;94076.69;;;7.01;100.00
10606;BME280;5350;42.698;23.148;2023-01-23T04:30:24;94075.38;;;6.99;100.00
10606;BME280;5350;42.698;23.148;2023-01-23T04:32:50;94083.75;;;6.96;100.00
10606;BME280;5350;42.698;23.148;2023-01-23T04:35:17;94074.59;;;6.98;100.00
10606;BME280;5350;42.698;23.148;2023-01-23T04:37:45;94067.00;;;6.97;100.00
10606;BME280;5350;42.698;23.148;2023-01-23T04:40:12;94062.06;;;7.05;100.00
10606;BME280;5350;42.698;23.148;2023-01-23T04:42:39;94069.63;;;7.02;100.00
10606;BME280;5350;42.698;23.148;2023-01-23T04:45:07;94075.66;;;7.07;100.00
10606;BME280;5350;42.698;23.148;2023-01-23T04:47:33;94072.78;;;7.04;100.00
10606;BME280;5350;42.698;23.148;2023-01-23T04:50:01;94067.03;;;7.02;100.00
10606;BME280;5350;42.698;23.148;2023-01-23T04:52:28;94073.00;;;6.97;100.00
10606;BME280;5350;42.698;23.148;2023-01-23T04:54:56;94072.00;;;7.03;100.00
10606;BME280;5350;42.698;23.148;2023-01-23T04:57:23;94072.00;;;6.98;100.00
10606;BME280;5350;42.698;23.148;2023-01-23T04:59:49;94082.44;;;6.98;100.00
10606;BME280;5350;42.698;23.148;2023-01-23T05:02:16;94092.16;;;7.03;100.00
10606;BME280;5350;42.698;23.148;2023-01-23T05:04:43;94086.91;;;7.03;100.00
10606;BME280;5350;42.698;23.148;2023-01-23T05:07:10;94098.94;;;7.04;100.00
10606;BME280;5350;42.698;23.148;2023-01-23T05:09:37;94094.28;;;7.11;100.00
10606;BME280;5350;42.698;23.148;2023-01-23T05:12:06;94095.06;;;7.16;100.00
10606;BME280;5350;42.698;23.148;2023-01-23T05:14:33;94088.25;;;7.10;100.00
10606;BME280;5350;42.698;23.148;2023-01-23T05:16:59;94095.31;;;7.10;100.00
10606;BME280;5350;42.698;23.148;2023-01-23T05:19:26;94105.75;;;7.10;100.00
10606;BME280;5350;42.698;23.148;2023-01-23T05:21:53;94097.13;;;7.09;100.00
10606;BME280;5350;42.698;23.148;2023-01-23T05:24:19;94108.91;;;7.07;100.00
10606;BME280;5350;42.698;23.148;2023-01-23T05:26:46;94125.88;;;7.04;100.00
10606;BME280;5350;42.698;23.148;2023-01-23T05:29:14;94126.16;;;7.08;100.00
10606;BME280;5350;42.698;23.148;2023-01-23T05:31:41;94122.72;;;6.97;100.00
10606;BME280;5350;42.698;23.148;2023-01-23T05:34:08;94128.47;;;6.99;100.00
10606;BME280;5350;42.698;23.148;2023-01-23T05:36:34;94135.81;;;7.02;100.00
10606;BME280;5350;42.698;23.148;2023-01-23T05:39:01;94131.06;;;6.94;100.00
10606;BME280;5350;42.698;23.148;2023-01-23T05:41:28;94133.69;;;6.99;100.00
10606;BME280;5350;42.698;23.148;2023-01-23T05:43:54;94134.75;;;7.03;100.00
10606;BME280;5350;42.698;23.148;2023-01-23T05:46:22;94111.63;;;6.80;100.00
10606;BME280;5350;42.698;23.148;2023-01-23T05:48:49;94133.44;;;6.96;100.00
10606;BME280;5350;42.698;23.148;2023-01-23T05:51:17;94135.00;;;6.97;100.00
10606;BME280;5350;42.698;23.148;2023-01-23T05:53:43;94132.91;;;6.94;100.00
10606;BME280;5350;42.698;23.148;2023-01-23T05:56:10;94141.72;;;6.78;100.00
10606;BME280;5350;42.698;23.148;2023-01-23T05:58:37;94137.06;;;6.95;100.00
10606;BME280;5350;42.698;23.148;2023-01-23T06:01:04;94129.22;;;6.95;100.00
10606;BME280;5350;42.698;23.148;2023-01-23T06:03:32;94148.31;;;6.95;100.00
10606;BME280;5350;42.698;23.148;2023-01-23T06:05:59;94146.50;;;7.01;100.00
10606;BME280;5350;42.698;23.148;2023-01-23T06:08:26;94148.06;;;6.97;100.00
10606;BME280;5350;42.698;23.148;2023-01-23T06:10:53;94152.28;;;6.98;100.00
10606;BME280;5350;42.698;23.148;2023-01-23T06:13:23;94150.16;;;6.95;100.00
10606;BME280;5350;42.698;23.148;2023-01-23T06:15:49;94160.38;;;7.01;100.00
10606;BME280;5350;42.698;23.148;2023-01-23T06:18:16;94166.16;;;7.03;100.00
10606;BME280;5350;42.698;23.148;2023-01-23T06:20:44;94147.84;;;7.03;100.00
10606;BME280;5350;42.698;23.148;2023-01-23T06:23:11;94150.97;;;7.00;100.00
10606;BME280;5350;42.698;23.148;2023-01-23T06:25:38;94161.94;;;6.97;100.00
10606;BME280;5350;42.698;23.148;2023-01-23T06:28:05;94161.94;;;6.97;100.00
10606;BME280;5350;42.698;23.148;2023-01-23T06:30:32;94176.63;;;7.03;100.00
10606;BME280;5350;42.698;23.148;2023-01-23T06:32:58;94169.88;;;7.12;100.00
10606;BME280;5350;42.698;23.148;2023-01-23T06:35:25;94172.44;;;7.07;100.00
10606;BME280;5350;42.698;23.148;2023-01-23T06:37:53;94157.81;;;7.11;100.00
10606;BME280;5350;42.698;23.148;2023-01-23T06:40:20;94167.22;;;7.07;100.00
10606;BME280;5350;42.698;23.148;2023-01-23T06:42:47;94155.69;;;7.03;100.00
10606;BME280;5350;42.698;23.148;2023-01-23T06:45:15;94175.06;;;7.02;100.00
10606;BME280;5350;42.698;23.148;2023-01-23T06:47:42;94153.34;;;7.02;100.00
10606;BME280;5350;42.698;23.148;2023-01-23T06:50:09;94172.97;;;7.04;100.00
10606;BME280;5350;42.698;23.148;2023-01-23T06:52:36;94184.72;;;7.02;100.00
10606;BME280;5350;42.698;23.148;2023-01-23T06:55:05;94202.28;;;7.11;100.00
10606;BME280;5350;42.698;23.148;2023-01-23T06:57:33;94201.75;;;7.09;100.00
10606;BME280;5350;42.698;23.148;2023-01-23T06:59:59;94209.88;;;7.08;100.00
10606;BME280;5350;42.698;23.148;2023-01-23T07:02:26;94204.16;;;7.11;100.00
10606;BME280;5350;42.698;23.148;2023-01-23T07:04:53;94219.84;;;7.11;100.00
10606;BME280;5350;42.698;23.148;2023-01-23T07:07:20;94223.22;;;7.11;100.00
10606;BME280;5350;42.698;23.148;2023-01-23T07:09:46;94218.00;;;7.11;100.00
10606;BME280;5350;42.698;23.148;2023-01-23T07:12:14;94216.44;;;7.15;100.00
10606;BME280;5350;42.698;23.148;2023-01-23T07:14:41;94207.28;;;7.13;100.00
10606;BME280;5350;42.698;23.148;2023-01-23T07:17:08;94224.81;;;7.12;100.00
10606;BME280;5350;42.698;23.148;2023-01-23T07:19:35;94221.19;;;7.18;100.00
10606;BME280;5350;42.698;23.148;2023-01-23T07:22:01;94231.91;;;7.17;100.00
10606;BME280;5350;42.698;23.148;2023-01-23T07:24:28;94227.75;;;7.26;100.00
10606;BME280;5350;42.698;23.148;2023-01-23T07:26:56;94236.38;;;7.21;100.00
10606;BME280;5350;42.698;23.148;2023-01-23T07:29:24;94244.47;;;7.20;100.00
10606;BME280;5350;42.698;23.148;2023-01-23T07:31:51;94243.22;;;7.28;100.00
10606;BME280;5350;42.698;23.148;2023-01-23T07:34:18;94243.72;;;7.24;100.00
10606;BME280;5350;42.698;23.148;2023-01-23T07:36:45;94257.31;;;7.21;100.00
10606;BME280;5350;42.698;23.148;2023-01-23T07:39:11;94259.41;;;7.19;100.00
10606;BME280;5350;42.698;23.148;2023-01-23T07:41:40;94252.84;;;7.22;100.00
10606;BME280;5350;42.698;23.148;2023-01-23T07:44:07;94275.09;;;7.19;100.00
10606;BME280;5350;42.698;23.148;2023-01-23T07:46:42;94263.53;;;7.15;100.00
10606;BME280;5350;42.698;23.148;2023-01-23T07:49:10;94258.28;;;7.10;100.00
10606;BME280;5350;42.698;23.148;2023-01-23T07:51:37;94266.94;;;7.11;100.00
10606;BME280;5350;42.698;23.148;2023-01-23T07:54:04;94264.84;;;7.13;100.00
10606;BME280;5350;42.698;23.148;2023-01-23T07:56:31;94262.47;;;7.11;100.00
10606;BME280;5350;42.698;23.148;2023-01-23T07:58:58;94264.00;;;7.07;100.00
10606;BME280;5350;42.698;23.148;2023-01-23T08:01:25;94270.84;;;7.13;100.00
10606;BME280;5350;42.698;23.148;2023-01-23T08:03:54;94276.66;;;7.20;100.00
10606;BME280;5350;42.698;23.148;2023-01-23T08:06:20;94271.16;;;7.22;100.00
10606;BME280;5350;42.698;23.148;2023-01-23T08:08:47;94268.06;;;7.25;100.00
10606;BME280;5350;42.698;23.148;2023-01-23T08:11:15;94286.16;;;7.32;100.00
10606;BME280;5350;42.698;23.148;2023-01-23T08:13:42;94267.31;;;7.35;100.00
10606;BME280;5350;42.698;23.148;2023-01-23T08:16:08;94271.06;;;7.44;100.00
10606;BME280;5350;42.698;23.148;2023-01-23T08:18:35;94273.41;;;7.45;100.00
10606;BME280;5350;42.698;23.148;2023-01-23T08:21:03;94276.84;;;7.51;100.00
10606;BME280;5350;42.698;23.148;2023-01-23T08:23:32;94281.56;;;7.54;100.00
10606;BME280;5350;42.698;23.148;2023-01-23T08:26:01;94281.56;;;7.49;100.00
10606;BME280;5350;42.698;23.148;2023-01-23T08:28:29;94288.09;;;7.46;100.00
10606;BME280;5350;42.698;23.148;2023-01-23T08:30:59;94296.97;;;7.45;100.00
10606;BME280;5350;42.698;23.148;2023-01-23T08:33:26;94294.66;;;7.49;100.00
10606;BME280;5350;42.698;23.148;2023-01-23T08:35:55;94285.75;;;7.50;100.00
10606;BME280;5350;42.698;23.148;2023-01-23T08:38:24;94286.75;;;7.44;100.00
10606;BME280;5350;42.698;23.148;2023-01-23T08:40:52;94262.16;;;7.45;100.00
10606;BME280;5350;42.698;23.148;2023-01-23T08:43:20;94273.41;;;7.40;100.00
10606;BME280;5350;42.698;23.148;2023-01-23T08:45:49;94285.72;;;7.45;100.00
10606;BME280;5350;42.698;23.148;2023-01-23T08:48:16;94293.28;;;7.41;100.00
10606;BME280;5350;42.698;23.148;2023-01-23T08:50:43;94287.75;;;7.38;100.00
10606;BME280;5350;42.698;23.148;2023-01-23T08:53:11;94290.91;;;7.40;100.00
10606;BME280;5350;42.698;23.148;2023-01-23T08:55:39;94299.53;;;7.35;100.00
10606;BME280;5350;42.698;23.148;2023-01-23T08:58:08;94296.16;;;7.40;100.00
10606;BME280;5350;42.698;23.148;2023-01-23T09:00:37;94283.06;;;7.40;100.00
10606;BME280;5350;42.698;23.148;2023-01-23T09:03:04;94295.09;;;7.41;100.00
10606;BME280;5350;42.698;23.148;2023-01-23T09:05:31;94294.00;;;7.32;100.00
10606;BME280;5350;42.698;23.148;2023-01-23T09:07:58;94293.59;;;7.45;100.00
10606;BME280;5350;42.698;23.148;2023-01-23T09:10:25;94284.94;;;7.44;100.00
10606;BME280;5350;42.698;23.148;2023-01-23T09:12:53;94294.91;;;7.52;100.00
10606;BME280;5350;42.698;23.148;2023-01-23T09:15:20;94302.78;;;7.57;100.00
10606;BME280;5350;42.698;23.148;2023-01-23T09:17:47;94291.03;;;7.60;100.00
10606;BME280;5350;42.698;23.148;2023-01-23T09:20:14;94283.69;;;7.62;100.00
10606;BME280;5350;42.698;23.148;2023-01-23T09:22:41;94300.78;;;7.69;100.00
10606;BME280;5350;42.698;23.148;2023-01-23T09:25:09;94305.44;;;7.62;100.00
10606;BME280;5350;42.698;23.148;2023-01-23T09:27:36;94300.28;;;7.82;100.00
10606;BME280;5350;42.698;23.148;2023-01-23T09:30:05;94307.13;;;7.83;100.00
10606;BME280;5350;42.698;23.148;2023-01-23T09:32:32;94294.31;;;7.87;100.00
10606;BME280;5350;42.698;23.148;2023-01-23T09:34:58;94294.38;;;8.02;100.00
10606;BME280;5350;42.698;23.148;2023-01-23T09:37:28;94292.31;;;8.09;100.00
10606;BME280;5350;42.698;23.148;2023-01-23T09:40:16;94287.56;;;8.06;100.00
10606;BME280;5350;42.698;23.148;2023-01-23T09:42:44;94304.38;;;8.15;100.00
10606;BME280;5350;42.698;23.148;2023-01-23T09:45:16;94286.78;;;8.05;100.00
10606;BME280;5350;42.698;23.148;2023-01-23T09:47:50;94294.97;;;8.19;100.00
10606;BME280;5350;42.698;23.148;2023-01-23T09:50:22;94304.88;;;8.12;100.00
10606;BME280;5350;42.698;23.148;2023-01-23T09:52:54;94304.38;;;8.15;100.00
10606;BME280;5350;42.698;23.148;2023-01-23T09:55:32;94307.28;;;8.24;100.00
10606;BME280;5350;42.698;23.148;2023-01-23T09:58:02;94310.41;;;8.21;100.00
10606;BME280;5350;42.698;23.148;2023-01-23T10:00:32;94314.63;;;8.22;100.00
10606;BME280;5350;42.698;23.148;2023-01-23T10:03:02;94316.97;;;8.23;100.00
10606;BME280;5350;42.698;23.148;2023-01-23T10:05:33;94313.25;;;8.04;100.00
10606;BME280;5350;42.698;23.148;2023-01-23T10:08:06;94313.50;;;8.02;100.00
10606;BME280;5350;42.698;23.148;2023-01-23T10:10:56;94316.97;;;8.13;100.00
10606;BME280;5350;42.698;23.148;2023-01-23T10:13:37;94305.97;;;8.21;100.00
10606;BME280;5350;42.698;23.148;2023-01-23T10:16:39;94312.31;;;8.25;100.00
10606;BME280;5350;42.698;23.148;2023-01-23T10:19:19;94315.63;;;8.16;100.00
10606;BME280;5350;42.698;23.148;2023-01-23T10:21:54;94316.91;;;8.03;100.00
10606;BME280;5350;42.698;23.148;2023-01-23T10:24:36;94329.53;;;8.11;100.00
10606;BME280;5350;42.698;23.148;2023-01-23T10:27:14;94320.03;;;8.00;100.00
10606;BME280;5350;42.698;23.148;2023-01-23T10:29:44;94329.19;;;7.97;100.00
10606;BME280;5350;42.698;23.148;2023-01-23T10:32:22;94315.63;;;8.11;100.00
10606;BME280;5350;42.698;23.148;2023-01-23T10:34:54;94321.13;;;8.14;100.00
10606;BME280;5350;42.698;23.148;2023-01-23T10:37:33;94316.44;;;8.16;100.00
10606;BME280;5350;42.698;23.148;2023-01-23T10:40:05;94310.88;;;8.02;100.00
10606;BME280;5350;42.698;23.148;2023-01-23T10:42:33;94304.59;;;8.03;100.00
10606;BME280;5350;42.698;23.148;2023-01-23T10:44:59;94287.00;;;7.94;100.00
10606;BME280;5350;42.698;23.148;2023-01-23T10:47:30;94303.53;;;7.99;100.00
10606;BME280;5350;42.698;23.148;2023-01-23T10:50:00;94301.69;;;8.00;100.00
10606;BME280;5350;42.698;23.148;2023-01-23T10:52:31;94302.25;;;8.07;100.00
10606;BME280;5350;42.698;23.148;2023-01-23T10:54:58;94304.03;;;7.91;100.00
10606;BME280;5350;42.698;23.148;2023-01-23T10:57:26;94299.34;;;8.03;100.00
10606;BME280;5350;42.698;23.148;2023-01-23T10:59:56;94296.50;;;8.05;100.00
10606;BME280;5350;42.698;23.148;2023-01-23T11:02:29;94306.97;;;8.10;100.00
10606;BME280;5350;42.698;23.148;2023-01-23T11:04:56;94299.56;;;7.92;100.00
10606;BME280;5350;42.698;23.148;2023-01-23T11:07:24;94300.91;;;7.99;100.00
10606;BME280;5350;42.698;23.148;2023-01-23T11:09:54;94298.31;;;8.04;100.00
10606;BME280;5350;42.698;23.148;2023-01-23T11:12:23;94291.97;;;7.95;100.00
10606;BME280;5350;42.698;23.148;2023-01-23T11:14:51;94296.69;;;7.93;100.00
10606;BME280;5350;42.698;23.148;2023-01-23T11:17:21;94290.44;;;7.99;100.00
10606;BME280;5350;42.698;23.148;2023-01-23T11:19:51;94304.53;;;7.88;100.00
10606;BME280;5350;42.698;23.148;2023-01-23T11:22:30;94282.22;;;7.81;100.00
10606;BME280;5350;42.698;23.148;2023-01-23T11:24:58;94288.03;;;7.88;100.00
10606;BME280;5350;42.698;23.148;2023-01-23T11:27:27;94294.84;;;7.89;100.00
10606;BME280;5350;42.698;23.148;2023-01-23T11:30:13;94284.13;;;7.95;100.00
10606;BME280;5350;42.698;23.148;2023-01-23T11:32:52;94291.72;;;7.92;100.00
10606;BME280;5350;42.698;23.148;2023-01-23T11:35:28;94282.53;;;7.89;100.00
10606;BME280;5350;42.698;23.148;2023-01-23T11:38:03;94282.19;;;7.71;100.00
10606;BME280;5350;42.698;23.148;2023-01-23T11:40:30;94280.66;;;7.85;100.00
10606;BME280;5350;42.698;23.148;2023-01-23T11:42:57;94290.88;;;7.86;100.00
10606;BME280;5350;42.698;23.148;2023-01-23T11:45:34;94279.84;;;7.74;100.00
10606;BME280;5350;42.698;23.148;2023-01-23T11:48:16;94278.28;;;7.78;100.00
10606;BME280;5350;42.698;23.148;2023-01-23T11:50:47;94282.47;;;7.74;100.00
10606;BME280;5350;42.698;23.148;2023-01-23T11:53:20;94282.47;;;7.74;100.00
10606;BME280;5350;42.698;23.148;2023-01-23T11:59:08;94267.53;;;7.75;100.00
10606;BME280;5350;42.698;23.148;2023-01-23T12:01:52;94273.28;;;7.67;100.00
10606;BME280;5350;42.698;23.148;2023-01-23T12:04:43;94292.94;;;7.69;100.00
10606;BME280;5350;42.698;23.148;2023-01-23T12:07:20;94285.88;;;7.75;100.00
10606;BME280;5350;42.698;23.148;2023-01-23T12:09:55;94280.63;;;7.75;100.00
10606;BME280;5350;42.698;23.148;2023-01-23T12:12:45;94291.81;;;7.60;100.00
10606;BME280;5350;42.698;23.148;2023-01-23T12:15:24;94282.69;;;7.63;100.00
10606;BME280;5350;42.698;23.148;2023-01-23T12:18:03;94274.81;;;7.63;100.00
10606;BME280;5350;42.698;23.148;2023-01-23T12:20:41;94271.31;;;7.47;100.00
10606;BME280;5350;42.698;23.148;2023-01-23T12:23:21;94266.84;;;7.38;100.00
10606;BME280;5350;42.698;23.148;2023-01-23T12:25:56;94284.34;;;7.32;100.00
10606;BME280;5350;42.698;23.148;2023-01-23T12:28:39;94288.47;;;7.28;100.00
10606;BME280;5350;42.698;23.148;2023-01-23T12:31:22;94279.59;;;7.29;100.00
10606;BME280;5350;42.698;23.148;2023-01-23T12:34:05;94287.72;;;7.33;100.00
10606;BME280;5350;42.698;23.148;2023-01-23T12:36:59;94279.38;;;7.36;100.00
10606;BME280;5350;42.698;23.148;2023-01-23T12:39:51;94284.88;;;7.34;100.00
10606;BME280;5350;42.698;23.148;2023-01-23T12:42:24;94288.88;;;7.47;100.00
10606;BME280;5350;42.698;23.148;2023-01-23T12:44:58;94286.75;;;7.44;100.00
10606;BME280;5350;42.698;23.148;2023-01-23T12:47:31;94296.09;;;7.30;100.00
10606;BME280;5350;42.698;23.148;2023-01-23T12:50:02;94302.66;;;7.32;100.00
10606;BME280;5350;42.698;23.148;2023-01-23T12:52:36;94299.84;;;7.44;100.00
10606;BME280;5350;42.698;23.148;2023-01-23T12:55:13;94291.94;;;7.34;100.00
10606;BME280;5350;42.698;23.148;2023-01-23T12:57:42;94294.88;;;7.42;100.00
10606;BME280;5350;42.698;23.148;2023-01-23T13:00:21;94288.72;;;7.21;100.00
10606;BME280;5350;42.698;23.148;2023-01-23T13:03:07;94301.34;;;7.35;100.00
10606;BME280;5350;42.698;23.148;2023-01-23T13:05:42;94305.34;;;7.42;100.00
10606;BME280;5350;42.698;23.148;2023-01-23T13:08:18;94303.75;;;7.41;100.00
10606;BME280;5350;42.698;23.148;2023-01-23T13:11:01;94301.13;;;7.41;100.00
10606;BME280;5350;42.698;23.148;2023-01-23T13:13:47;94290.56;;;7.26;100.00
10606;BME280;5350;42.698;23.148;2023-01-23T13:16:15;94293.97;;;7.26;100.00
10606;BME280;5350;42.698;23.148;2023-01-23T13:18:51;94298.66;;;7.24;100.00